createdAt,value
2022-10-04T00:00:29.111Z,12.96
2022-10-04T00:03:29.122Z,13.06
2022-10-04T00:06:03.835Z,13.04
2022-10-04T00:08:45.579Z,13.03
2022-10-04T00:11:23.734Z,12.90
2022-10-04T00:13:58.626Z,12.99
2022-10-04T00:16:33.858Z,12.69
2022-10-04T00:19:28.175Z,12.83
2022-10-04T00:22:20.798Z,12.89
2022-10-04T00:25:36.384Z,12.87
2022-10-04T00:28:33.235Z,12.90
2022-10-04T00:31:18.668Z,12.82
2022-10-04T00:33:52.882Z,12.89
2022-10-04T00:36:48.617Z,12.96
2022-10-04T00:39:50.674Z,12.97
2022-10-04T00:42:47.558Z,12.94
2022-10-04T00:45:29.134Z,12.94
2022-10-04T00:48:17.234Z,12.93
2022-10-04T00:50:54.650Z,12.90
2022-10-04T00:53:43.152Z,12.88
2022-10-04T00:56:22.007Z,12.82
2022-10-04T00:59:20.809Z,12.82
2022-10-04T01:02:00.211Z,12.78
2022-10-04T01:04:38.983Z,12.78
2022-10-04T01:07:15.257Z,12.75
2022-10-04T01:09:54.226Z,12.76
2022-10-04T01:12:41.125Z,12.77
2022-10-04T01:15:18.559Z,12.78
2022-10-04T01:18:13.076Z,12.72
2022-10-04T01:20:55.229Z,12.73
2022-10-04T01:23:42.793Z,12.73
2022-10-04T01:26:41.589Z,12.74
2022-10-04T01:29:17.563Z,12.60
2022-10-04T01:31:51.622Z,12.73
2022-10-04T01:34:25.572Z,12.66
2022-10-04T01:36:59.951Z,12.62
2022-10-04T01:39:32.311Z,12.70
2022-10-04T01:42:08.759Z,12.75
2022-10-04T01:44:46.915Z,12.69
2022-10-04T01:47:22.687Z,12.61
2022-10-04T01:49:58.341Z,12.64
2022-10-04T01:52:37.012Z,12.69
2022-10-04T01:55:14.841Z,12.60
2022-10-04T01:57:52.864Z,12.61
2022-10-04T02:00:25.588Z,12.60
2022-10-04T02:03:02.846Z,12.50
2022-10-04T02:05:42.531Z,12.46
2022-10-04T02:08:18.700Z,12.40
2022-10-04T02:10:54.616Z,12.28
2022-10-04T02:13:34.770Z,12.34
2022-10-04T02:16:12.785Z,12.35
2022-10-04T02:18:46.038Z,12.36
2022-10-04T02:21:20.380Z,12.39
2022-10-04T02:24:34.380Z,12.45
2022-10-04T02:27:06.901Z,12.39
2022-10-04T02:29:40.044Z,12.46
2022-10-04T02:32:31.899Z,12.38
2022-10-04T02:35:07.157Z,12.36
2022-10-04T02:37:40.899Z,12.37
2022-10-04T02:40:19.118Z,12.35
2022-10-04T02:47:22.985Z,12.28
2022-10-04T02:49:59.810Z,12.31
2022-10-04T02:52:45.519Z,12.23
2022-10-04T02:55:24.455Z,12.26
2022-10-04T02:57:58.485Z,12.35
2022-10-04T03:00:46.312Z,12.14
2022-10-04T03:03:26.315Z,12.14
2022-10-04T03:10:40.047Z,12.17
2022-10-04T03:13:37.898Z,12.16
2022-10-04T03:16:11.169Z,12.13
2022-10-04T03:18:44.272Z,12.21
2022-10-04T03:21:19.684Z,12.15
2022-10-04T03:23:53.342Z,12.13
2022-10-04T03:26:30.578Z,12.02
2022-10-04T03:29:03.404Z,12.07
2022-10-04T03:31:39.456Z,11.96
2022-10-04T03:34:17.220Z,11.90
2022-10-04T03:36:50.373Z,11.94
2022-10-04T03:39:32.883Z,11.96
2022-10-04T03:42:11.562Z,11.82
2022-10-04T03:44:45.151Z,11.90
2022-10-04T03:47:21.511Z,11.81
2022-10-04T03:49:56.339Z,11.89
2022-10-04T03:52:33.907Z,11.90
2022-10-04T03:55:10.220Z,11.92
2022-10-04T03:57:45.348Z,11.91
2022-10-04T04:00:20.603Z,11.99
2022-10-04T04:02:58.500Z,12.00
2022-10-04T04:05:33.550Z,12.08
2022-10-04T04:08:14.771Z,12.12
2022-10-04T04:10:51.591Z,12.11
2022-10-04T04:13:30.214Z,12.16
2022-10-04T04:16:05.687Z,12.16
2022-10-04T04:18:40.092Z,12.15
2022-10-04T04:21:19.789Z,12.13
2022-10-04T04:23:57.020Z,12.13
2022-10-04T04:26:38.266Z,12.10
2022-10-04T04:29:18.574Z,12.05
2022-10-04T04:31:57.345Z,12.08
2022-10-04T04:34:31.316Z,12.15
2022-10-04T04:37:05.022Z,12.15
2022-10-04T04:39:41.358Z,12.18
2022-10-04T04:42:23.664Z,12.15
2022-10-04T04:45:00.274Z,12.21
2022-10-04T04:47:40.298Z,11.93
2022-10-04T04:50:16.931Z,12.20
2022-10-04T04:52:52.485Z,12.24
2022-10-04T04:55:27.220Z,12.20
2022-10-04T04:58:01.074Z,12.26
2022-10-04T05:00:36.342Z,12.28
2022-10-04T05:03:20.259Z,12.34
2022-10-04T05:05:53.857Z,12.32
2022-10-04T05:08:28.866Z,12.30
2022-10-04T05:11:17.305Z,12.42
2022-10-04T05:13:55.043Z,12.43
2022-10-04T05:16:39.657Z,12.45
2022-10-04T05:19:18.430Z,12.42
2022-10-04T05:21:54.144Z,12.46
2022-10-04T05:24:32.492Z,12.46
2022-10-04T05:27:08.631Z,12.40
2022-10-04T05:29:44.062Z,12.57
2022-10-04T05:32:32.273Z,12.60
2022-10-04T05:35:16.349Z,12.58
2022-10-04T05:37:58.330Z,12.57
2022-10-04T05:40:49.560Z,12.55
2022-10-04T05:43:35.777Z,12.60
2022-10-04T05:46:23.428Z,12.64
2022-10-04T05:49:04.302Z,12.76
2022-10-04T05:51:51.059Z,12.78
2022-10-04T05:54:26.238Z,12.81
2022-10-04T05:57:34.924Z,12.79
2022-10-04T06:00:15.936Z,12.80
2022-10-04T06:03:25.241Z,12.89
2022-10-04T06:06:02.497Z,12.89
2022-10-04T06:08:56.636Z,12.90
2022-10-04T06:11:44.272Z,12.95
2022-10-04T06:14:45.283Z,12.90
2022-10-04T06:17:46.317Z,12.92
2022-10-04T06:21:21.352Z,12.89
2022-10-04T06:24:02.364Z,12.89
2022-10-04T06:26:41.691Z,12.90
2022-10-04T06:29:20.807Z,12.93
2022-10-04T06:32:14.591Z,12.97
2022-10-04T06:35:13.253Z,13.06
2022-10-04T06:38:08.895Z,13.08
2022-10-04T06:41:07.388Z,13.06
2022-10-04T06:43:57.911Z,13.07
2022-10-04T06:46:39.489Z,13.16
2022-10-04T06:49:28.596Z,13.29
2022-10-04T06:52:36.430Z,13.29
2022-10-04T06:55:28.936Z,13.30
2022-10-04T06:58:25.144Z,13.29
2022-10-04T07:02:14.557Z,13.34
2022-10-04T07:05:07.637Z,13.26
2022-10-04T07:07:47.661Z,13.37
2022-10-04T07:10:32.214Z,13.35
2022-10-04T07:13:19.855Z,13.35
2022-10-04T07:16:00.661Z,13.42
2022-10-04T07:18:41.138Z,13.41
2022-10-04T07:21:17.383Z,13.42
2022-10-04T07:23:55.271Z,13.50
2022-10-04T07:26:32.351Z,13.55
2022-10-04T07:29:24.225Z,13.51
2022-10-04T07:32:12.988Z,13.60
2022-10-04T07:34:51.947Z,13.58
2022-10-04T07:37:28.182Z,13.80
2022-10-04T07:40:08.725Z,13.83
2022-10-04T07:42:50.293Z,13.90
2022-10-04T07:45:29.922Z,13.94
2022-10-04T07:48:17.832Z,13.86
2022-10-04T07:51:00.513Z,13.83
2022-10-04T07:53:40.618Z,13.89
2022-10-04T07:56:17.089Z,13.91
2022-10-04T07:58:59.099Z,13.89
2022-10-04T08:01:41.838Z,13.98
2022-10-04T08:04:30.712Z,14.00
2022-10-04T08:07:06.837Z,14.03
2022-10-04T08:09:48.901Z,14.03
2022-10-04T08:12:29.176Z,14.06
2022-10-04T08:15:20.270Z,14.15
2022-10-04T08:18:06.542Z,14.11
2022-10-04T08:20:49.275Z,14.11
2022-10-04T08:23:41.172Z,14.08
2022-10-04T08:26:29.936Z,14.18
2022-10-04T08:29:32.539Z,14.26
2022-10-04T08:32:14.793Z,14.25
2022-10-04T08:35:03.955Z,14.35
2022-10-04T08:37:47.725Z,14.35
2022-10-04T08:40:50.115Z,14.30
2022-10-04T08:43:56.899Z,14.28
2022-10-04T08:46:59.476Z,14.38
2022-10-04T08:50:06.906Z,14.44
2022-10-04T08:53:20.733Z,14.50
2022-10-04T08:56:08.225Z,14.45
2022-10-04T08:59:21.807Z,14.50
2022-10-04T09:02:33.105Z,14.49
2022-10-04T09:05:24.852Z,14.50
2022-10-04T09:08:23.961Z,14.54
2022-10-04T09:11:12.525Z,14.50
2022-10-04T09:13:55.424Z,14.51
2022-10-04T09:16:39.707Z,14.58
2022-10-04T09:19:23.904Z,14.62
2022-10-04T09:22:20.401Z,14.62
2022-10-04T09:25:19.535Z,14.60
2022-10-04T09:28:20.936Z,14.63
2022-10-04T09:31:15.564Z,14.69
2022-10-04T09:33:59.694Z,14.83
2022-10-04T09:36:53.965Z,14.91
2022-10-04T09:39:52.471Z,15.06
2022-10-04T09:43:05.641Z,15.05
2022-10-04T09:46:12.077Z,15.06
2022-10-04T09:48:55.245Z,15.07
2022-10-04T09:51:43.322Z,15.08
2022-10-04T09:54:32.080Z,15.11
2022-10-04T09:57:20.055Z,15.09
2022-10-04T10:00:10.514Z,15.06
2022-10-04T10:03:16.456Z,15.08
2022-10-04T10:06:22.552Z,15.24
2022-10-04T10:09:09.591Z,15.26
2022-10-04T10:12:07.447Z,15.48
2022-10-04T10:15:09.137Z,15.46
2022-10-04T10:17:49.998Z,15.63
2022-10-04T10:20:54.692Z,15.59
2022-10-04T10:23:53.015Z,15.48
2022-10-04T10:26:37.145Z,15.41
2022-10-04T10:29:50.604Z,15.42
2022-10-04T10:41:19.257Z,15.56
2022-10-04T10:44:23.580Z,15.72
2022-10-04T10:47:08.451Z,15.81
2022-10-04T10:49:56.432Z,15.65
2022-10-04T10:53:04.392Z,15.63
2022-10-04T10:56:00.204Z,15.60
2022-10-04T10:59:06.339Z,15.53
2022-10-04T11:02:37.113Z,15.52
2022-10-04T11:05:26.553Z,15.49
2022-10-04T11:08:12.029Z,15.85
2022-10-04T11:11:20.904Z,15.86
2022-10-04T11:14:12.620Z,15.91
2022-10-04T11:17:29.823Z,15.87
2022-10-04T11:20:26.875Z,16.09
2022-10-04T11:23:41.484Z,16.18
2022-10-04T11:26:48.654Z,16.08
2022-10-04T11:29:34.156Z,15.93
2022-10-04T11:32:34.378Z,15.89
2022-10-04T11:35:45.024Z,16.04
2022-10-04T11:38:36.045Z,16.29
2022-10-04T11:41:19.320Z,16.58
2022-10-04T11:44:17.079Z,16.66
2022-10-04T11:46:57.005Z,16.55
2022-10-04T11:49:50.544Z,16.59
2022-10-04T11:52:48.728Z,16.70
2022-10-04T11:55:46.861Z,16.73
2022-10-04T11:58:27.077Z,16.76
2022-10-04T12:01:30.376Z,16.67
2022-10-04T12:04:47.076Z,16.50
2022-10-04T12:07:40.192Z,16.32
2022-10-04T12:10:30.037Z,16.23
2022-10-04T12:13:29.549Z,16.34
2022-10-04T12:16:24.252Z,16.33
2022-10-04T12:19:15.530Z,16.31
2022-10-04T12:22:06.839Z,16.36
2022-10-04T12:25:31.789Z,16.48
2022-10-04T12:28:29.559Z,16.66
2022-10-04T12:31:16.500Z,16.92
2022-10-04T12:33:55.245Z,17.13
2022-10-04T12:36:54.733Z,17.49
2022-10-04T12:39:40.985Z,17.55
2022-10-04T12:42:32.429Z,17.68
2022-10-04T12:45:23.567Z,17.86
2022-10-04T12:48:09.167Z,17.97
2022-10-04T12:51:00.234Z,17.89
2022-10-04T12:53:44.626Z,17.96
2022-10-04T12:56:34.934Z,18.12
2022-10-04T12:59:23.970Z,18.04
2022-10-04T13:02:06.889Z,18.13
2022-10-04T13:04:46.349Z,18.28
2022-10-04T13:07:36.856Z,18.39
2022-10-04T13:10:27.036Z,18.42
2022-10-04T13:13:23.404Z,18.44
2022-10-04T13:19:02.294Z,18.45
2022-10-04T13:22:02.908Z,18.41
2022-10-04T13:24:57.578Z,18.42
2022-10-04T13:27:38.421Z,18.44
2022-10-04T13:30:23.469Z,18.40
2022-10-04T13:33:07.251Z,18.41
2022-10-04T13:35:48.660Z,18.46
2022-10-04T13:38:55.533Z,18.34
2022-10-04T13:41:42.993Z,18.19
2022-10-04T13:44:47.944Z,18.24
2022-10-04T13:47:40.359Z,18.06
2022-10-04T13:50:40.901Z,18.06
2022-10-04T13:53:53.805Z,18.11
2022-10-04T13:56:55.785Z,18.32
2022-10-04T13:59:39.501Z,18.26
2022-10-04T14:03:02.349Z,18.17
2022-10-04T14:06:06.481Z,18.17
2022-10-04T14:09:13.306Z,18.09
2022-10-04T14:12:17.911Z,17.96
2022-10-04T14:15:21.757Z,17.84
2022-10-04T14:18:27.492Z,17.83
2022-10-04T14:21:30.579Z,17.77
2022-10-04T14:24:38.981Z,17.60
2022-10-04T14:27:51.346Z,17.55
2022-10-04T14:30:39.965Z,17.53
2022-10-04T14:33:47.481Z,17.42
2022-10-04T14:36:50.779Z,17.38
2022-10-04T14:39:41.767Z,17.34
2022-10-04T14:42:50.201Z,17.31
2022-10-04T14:45:35.382Z,17.29
2022-10-04T14:48:24.970Z,17.26
2022-10-04T14:51:26.825Z,17.20
2022-10-04T14:54:05.634Z,17.07
2022-10-04T14:56:59.130Z,17.01
2022-10-04T15:00:16.988Z,17.02
2022-10-04T15:03:13.590Z,16.96
2022-10-04T15:06:14.078Z,16.93
2022-10-04T15:09:22.117Z,16.91
2022-10-04T15:12:25.614Z,16.93
2022-10-04T15:15:13.325Z,16.89
2022-10-04T15:18:03.577Z,16.91
2022-10-04T15:20:50.642Z,16.91
2022-10-04T15:23:37.974Z,16.87
2022-10-04T15:26:29.550Z,16.84
2022-10-04T15:29:24.397Z,16.76
2022-10-04T15:32:07.958Z,16.71
2022-10-04T15:34:47.590Z,16.73
2022-10-04T15:37:34.970Z,16.72
2022-10-04T15:40:38.382Z,16.71
2022-10-04T15:43:23.408Z,16.67
2022-10-04T15:46:25.204Z,16.59
2022-10-04T15:49:17.324Z,16.59
2022-10-04T15:52:09.819Z,16.54
2022-10-04T15:55:11.508Z,16.48
2022-10-04T15:58:21.014Z,16.44
2022-10-04T16:01:19.822Z,16.42
2022-10-04T16:04:29.273Z,16.36
2022-10-04T16:07:21.041Z,16.15
2022-10-04T16:10:01.277Z,16.24
2022-10-04T16:12:42.103Z,16.22
2022-10-04T16:15:21.457Z,16.22
2022-10-04T16:18:05.819Z,16.11
2022-10-04T16:21:07.184Z,16.14
2022-10-04T16:23:44.188Z,16.10
2022-10-04T16:26:37.599Z,16.06
2022-10-04T16:29:29.366Z,15.99
2022-10-04T16:32:05.205Z,15.92
2022-10-04T16:34:55.550Z,15.85
2022-10-04T16:37:38.992Z,15.81
2022-10-04T16:40:32.270Z,15.75
2022-10-04T16:43:15.541Z,15.71
2022-10-04T16:46:07.951Z,15.64
2022-10-04T16:48:52.186Z,15.56
2022-10-04T16:51:47.511Z,15.50
2022-10-04T16:54:35.375Z,15.45
2022-10-04T16:57:23.373Z,15.40
2022-10-04T16:59:57.334Z,15.35
2022-10-04T17:02:40.156Z,15.28
2022-10-04T17:05:38.977Z,15.23
2022-10-04T17:08:40.326Z,15.18
2022-10-04T17:11:35.883Z,15.10
2022-10-04T17:14:22.359Z,14.95
2022-10-04T17:16:58.296Z,15.00
2022-10-04T17:19:42.477Z,14.93
2022-10-04T17:22:27.064Z,14.87
2022-10-04T17:25:16.657Z,14.83
2022-10-04T17:27:55.034Z,14.80
2022-10-04T17:30:29.453Z,14.72
2022-10-04T17:33:29.279Z,14.64
2022-10-04T17:36:56.535Z,14.58
2022-10-04T17:39:44.531Z,14.55
2022-10-04T17:42:36.251Z,14.49
2022-10-04T17:45:22.293Z,14.47
2022-10-04T17:48:21.895Z,14.42
2022-10-04T17:51:19.141Z,14.41
2022-10-04T17:54:18.899Z,14.39
2022-10-04T17:57:00.013Z,14.34
2022-10-04T17:59:41.383Z,14.33
2022-10-04T18:02:19.086Z,14.33
2022-10-04T18:04:56.767Z,14.30
2022-10-04T18:07:38.282Z,14.29
2022-10-04T18:13:30.001Z,14.26
2022-10-04T18:16:10.306Z,14.21
2022-10-04T18:18:44.127Z,14.19
2022-10-04T18:21:49.573Z,14.20
2022-10-04T18:24:29.301Z,14.20
2022-10-04T18:27:04.978Z,14.19
2022-10-04T18:29:43.270Z,14.06
2022-10-04T18:32:35.793Z,14.13
2022-10-04T18:35:25.126Z,14.13
2022-10-04T18:37:59.989Z,14.11
2022-10-04T18:40:36.810Z,14.09
2022-10-04T18:43:26.686Z,14.06
2022-10-04T18:46:06.900Z,14.03
2022-10-04T18:48:52.280Z,13.99
2022-10-04T18:51:40.261Z,13.96
2022-10-04T18:54:22.833Z,13.92
2022-10-04T18:57:05.588Z,13.91
2022-10-04T19:00:04.638Z,13.86
2022-10-04T19:02:49.476Z,13.84
2022-10-04T19:05:27.893Z,13.81
2022-10-04T19:08:06.819Z,13.79
2022-10-04T19:10:43.382Z,13.76
2022-10-04T19:13:30.598Z,13.70
2022-10-04T19:16:36.457Z,13.69
2022-10-04T19:19:44.349Z,13.64
2022-10-04T19:22:34.505Z,13.56
2022-10-04T19:25:27.928Z,13.54
2022-10-04T19:28:07.124Z,13.51
2022-10-04T19:31:07.159Z,13.48
2022-10-04T19:33:47.627Z,13.34
2022-10-04T19:36:42.222Z,13.44
2022-10-04T19:39:28.528Z,13.42
2022-10-04T19:42:04.197Z,13.41
2022-10-04T19:44:52.135Z,13.39
2022-10-04T19:47:42.564Z,13.35
2022-10-04T19:50:25.790Z,13.33
2022-10-04T19:53:03.250Z,13.22
2022-10-04T19:55:50.486Z,13.26
2022-10-04T19:59:16.578Z,13.23
2022-10-04T20:07:25.820Z,13.17
2022-10-04T20:09:58.041Z,13.16
2022-10-04T20:26:55.994Z,13.14
2022-10-04T20:30:05.312Z,13.15
2022-10-04T20:33:08.686Z,13.15
2022-10-04T20:54:45.873Z,12.99
2022-10-04T20:57:20.275Z,12.97
2022-10-04T20:59:55.493Z,12.98
2022-10-04T21:02:29.236Z,12.99
2022-10-04T21:05:16.001Z,12.99
2022-10-04T21:12:38.113Z,12.90
2022-10-04T21:15:21.651Z,12.96
2022-10-04T21:18:06.154Z,12.93
2022-10-04T21:20:47.084Z,12.89
2022-10-04T21:23:30.200Z,12.88
2022-10-04T21:26:22.899Z,12.70
2022-10-04T21:28:58.061Z,12.84
2022-10-04T21:31:30.206Z,12.87
2022-10-04T21:34:02.217Z,12.85
2022-10-04T21:36:34.414Z,12.86
2022-10-04T21:39:06.433Z,12.76
2022-10-04T21:41:38.596Z,12.82
2022-10-04T21:44:11.047Z,12.83
2022-10-04T21:46:45.116Z,12.83
2022-10-04T21:49:18.702Z,12.82
2022-10-04T21:51:51.041Z,12.81
2022-10-04T21:54:55.261Z,12.76
2022-10-04T21:57:31.896Z,12.76
2022-10-04T22:00:11.711Z,12.73
2022-10-04T22:02:47.171Z,12.76
2022-10-04T22:05:20.606Z,12.75
2022-10-04T22:07:52.686Z,12.76
2022-10-04T22:10:24.977Z,12.76
2022-10-04T22:12:57.326Z,12.74
2022-10-04T22:15:31.358Z,12.63
2022-10-04T22:18:06.770Z,12.72
2022-10-04T22:20:43.751Z,12.71
2022-10-04T22:23:24.076Z,12.68
2022-10-04T22:25:57.756Z,12.67
2022-10-04T22:28:31.674Z,12.67
2022-10-04T22:31:03.817Z,12.63
2022-10-04T22:33:41.132Z,12.64
2022-10-04T22:36:19.147Z,12.62
2022-10-04T22:38:57.839Z,12.59
2022-10-04T22:41:33.193Z,12.59
2022-10-04T22:44:15.797Z,12.57
2022-10-04T22:46:49.718Z,12.56
2022-10-04T22:49:25.075Z,12.54
2022-10-04T22:51:59.064Z,12.51
2022-10-04T22:54:34.849Z,12.52
2022-10-04T22:57:07.156Z,12.45
2022-10-04T22:59:44.617Z,12.48
2022-10-04T23:02:18.637Z,12.46
2022-10-04T23:04:55.202Z,12.46
2022-10-04T23:07:27.557Z,12.40
2022-10-04T23:09:59.754Z,12.50
2022-10-04T23:12:31.774Z,12.39
2022-10-04T23:15:06.379Z,12.48
2022-10-04T23:17:42.338Z,12.48
2022-10-04T23:20:17.879Z,12.50
2022-10-04T23:22:53.901Z,12.49
2022-10-04T23:25:28.801Z,12.49
2022-10-04T23:28:02.261Z,12.38
2022-10-04T23:30:34.475Z,12.50
2022-10-04T23:33:15.501Z,12.53
2022-10-04T23:35:47.784Z,12.49
2022-10-04T23:38:24.488Z,12.49
2022-10-04T23:40:56.879Z,12.51
2022-10-04T23:43:31.858Z,12.50
2022-10-04T23:46:12.617Z,12.51
2022-10-04T23:48:47.414Z,12.53
2022-10-04T23:51:20.356Z,12.52
2022-10-04T23:53:52.570Z,12.54
2022-10-04T23:56:28.252Z,12.55
2022-10-04T23:59:01.648Z,12.53
